Terminal Aerodrome Forecast
Issued by NWS Sioux Falls, SD

Home | Current Version | Previous Version | Graphics & Text | Print | Product List | Glossary On
Versions: 1 2 3 4 5 6 7 8 9 10 11 12 13 14 15
000
FTUS43 KFSD 291720
TAFFSD
TAF
KFSD 291720Z 2918/3018 09015G22KT P6SM VCSH SCT025 OVC050
     FM300100 08015G23KT P6SM VCSH OVC015
     FM300300 07013KT P6SM VCSH OVC015
     FM300500 05012KT P6SM OVC012=

USA.gov is the U.S. government's official web portal to all federal, state and local government web resources and services.